createdAt,value
2019-04-26T00:04:35.167Z,1.80
2019-04-26T00:09:42.471Z,5.00
2019-04-26T00:12:29.986Z,1.07
2019-04-26T00:15:18.470Z,1.93
2019-04-26T00:18:06.394Z,5.00
2019-04-26T00:20:34.796Z,2.97
2019-04-26T00:23:22.605Z,1.63
2019-04-26T00:26:30.900Z,2.20
2019-04-26T00:29:18.969Z,2.30
2019-04-26T00:32:06.815Z,1.37
2019-04-26T00:34:35.204Z,1.00
2019-04-26T00:37:16.327Z,1.43
2019-04-26T00:39:44.723Z,4.17
2019-04-26T00:45:07.908Z,2.90
2019-04-26T00:47:55.633Z,3.03
2019-04-26T00:51:03.937Z,5.80
2019-04-26T00:54:14.020Z,1.93
2019-04-26T00:57:22.422Z,1.53
2019-04-26T01:00:30.756Z,4.20
2019-04-26T01:03:39.087Z,5.90
2019-04-26T01:09:16.176Z,3.30
2019-04-26T01:11:46.028Z,6.53
2019-04-26T01:14:33.679Z,9.63
2019-04-26T01:17:02.074Z,7.70
2019-04-26T01:20:10.388Z,5.93
2019-04-26T01:23:18.793Z,2.27
2019-04-26T01:26:25.767Z,1.20
2019-04-26T01:29:34.089Z,5.73
2019-04-26T01:35:49.760Z,1.97
2019-04-26T01:38:58.152Z,4.67
2019-04-26T01:42:06.460Z,2.83
2019-04-26T01:45:14.774Z,8.00
2019-04-26T01:48:23.103Z,1.23
2019-04-26T01:51:31.407Z,1.63
2019-04-26T01:54:19.000Z,6.13
2019-04-26T01:57:27.356Z,2.30
2019-04-26T02:00:35.643Z,1.97
2019-04-26T02:06:38.523Z,3.50
2019-04-26T02:09:46.834Z,4.63
2019-04-26T02:12:15.228Z,1.97
2019-04-26T02:15:02.884Z,4.67
2019-04-26T02:17:50.524Z,6.57
2019-04-26T02:20:59.152Z,6.57
2019-04-26T02:23:35.226Z,5.90
2019-04-26T02:26:21.215Z,1.70
2019-04-26T02:28:49.960Z,5.53
2019-04-26T02:31:19.599Z,1.57
2019-04-26T02:33:48.908Z,3.40
2019-04-26T02:36:17.363Z,1.33
2019-04-26T02:38:46.203Z,2.20
2019-04-26T02:41:14.932Z,2.50
2019-04-26T02:43:45.739Z,1.47
2019-04-26T02:46:18.812Z,4.73
2019-04-26T02:48:54.687Z,5.93
2019-04-26T02:51:28.445Z,1.60
2019-04-26T02:54:02.260Z,2.00
2019-04-26T02:56:37.713Z,4.63
2019-04-26T02:59:09.206Z,7.47
2019-04-26T03:01:38.714Z,2.10
2019-04-26T03:04:30.154Z,2.40
2019-04-26T03:07:38.726Z,7.57
2019-04-26T03:10:47.032Z,2.90
2019-04-26T03:13:55.349Z,5.57
2019-04-26T03:17:03.669Z,1.53
2019-04-26T03:20:11.965Z,2.77
2019-04-26T03:23:20.426Z,1.60
2019-04-26T03:26:28.983Z,3.40
2019-04-26T03:29:37.426Z,8.13
2019-04-26T03:32:50.772Z,3.83
2019-04-26T03:36:13.845Z,1.77
2019-04-26T03:38:55.926Z,4.33
2019-04-26T03:42:22.038Z,2.20
2019-04-26T03:45:29.040Z,1.27
2019-04-26T03:48:39.276Z,2.77
2019-04-26T03:51:46.049Z,3.63
2019-04-26T03:54:54.434Z,2.33
2019-04-26T03:58:04.522Z,4.23
2019-04-26T04:01:12.840Z,1.90
2019-04-26T04:04:21.152Z,4.70
2019-04-26T04:07:39.367Z,3.97
2019-04-26T04:10:40.060Z,2.97
2019-04-26T04:13:51.211Z,3.23
2019-04-26T04:16:58.291Z,2.80
2019-04-26T04:20:14.955Z,4.57
2019-04-26T04:22:58.012Z,2.80
2019-04-26T04:25:32.309Z,5.30
2019-04-26T04:28:18.324Z,5.50
2019-04-26T04:31:16.045Z,4.17
2019-04-26T04:33:56.106Z,3.73
2019-04-26T04:36:27.558Z,3.70
2019-04-26T04:39:12.803Z,3.30
2019-04-26T04:41:49.113Z,5.93
2019-04-26T04:45:15.213Z,5.03
2019-04-26T04:48:23.857Z,4.83
2019-04-26T04:51:30.833Z,5.23
2019-04-26T04:54:39.136Z,4.83
2019-04-26T04:57:46.128Z,5.87
2019-04-26T05:00:54.443Z,7.73
2019-04-26T05:04:02.744Z,6.17
2019-04-26T05:07:11.058Z,4.27
2019-04-26T05:10:18.050Z,6.90
2019-04-26T05:13:25.028Z,5.03
2019-04-26T05:16:33.725Z,3.83
2019-04-26T05:19:38.127Z,6.50
2019-04-26T05:22:28.925Z,3.40
2019-04-26T05:25:20.888Z,4.27
2019-04-26T05:28:09.991Z,7.90
2019-04-26T05:31:07.191Z,5.63
2019-04-26T05:33:50.489Z,4.97
2019-04-26T05:36:30.863Z,9.10
2019-04-26T05:39:06.243Z,5.00
2019-04-26T05:41:51.493Z,5.70
2019-04-26T05:45:01.242Z,4.00
2019-04-26T05:47:37.326Z,4.70
2019-04-26T05:50:37.248Z,7.10
2019-04-26T05:53:31.321Z,18.67
2019-04-26T05:56:19.307Z,7.33
2019-04-26T05:59:10.061Z,3.50
2019-04-26T06:02:04.955Z,4.70
2019-04-26T06:04:49.620Z,3.73
2019-04-26T06:07:40.248Z,5.97
2019-04-26T06:10:24.801Z,3.60
2019-04-26T06:13:08.847Z,4.13
2019-04-26T06:16:04.013Z,4.90
2019-04-26T06:19:11.229Z,6.33
2019-04-26T06:22:06.680Z,7.13
2019-04-26T06:24:54.218Z,3.57
2019-04-26T06:27:39.203Z,4.50
2019-04-26T06:30:17.713Z,3.53
2019-04-26T06:33:04.274Z,3.53
2019-04-26T06:35:34.735Z,4.53
2019-04-26T06:38:43.689Z,3.67
2019-04-26T06:41:22.049Z,4.00
2019-04-26T06:44:06.793Z,4.37
2019-04-26T06:47:12.369Z,4.07
2019-04-26T06:50:07.953Z,3.67
2019-04-26T06:52:42.348Z,3.80
2019-04-26T06:55:24.548Z,4.50
2019-04-26T06:58:23.723Z,3.57
2019-04-26T07:01:16.957Z,4.10
2019-04-26T07:04:06.409Z,8.90
2019-04-26T07:06:43.662Z,4.10
2019-04-26T07:09:14.837Z,10.43
2019-04-26T07:12:23.854Z,3.90
2019-04-26T07:15:13.018Z,6.67
2019-04-26T07:17:59.187Z,3.90
2019-04-26T07:20:45.877Z,3.40
2019-04-26T07:23:49.389Z,8.70
2019-04-26T07:26:38.549Z,2.80
2019-04-26T07:29:31.099Z,4.50
2019-04-26T07:32:09.447Z,4.05
2019-04-26T07:34:48.290Z,2.83
2019-04-26T07:37:39.264Z,3.00
2019-04-26T07:40:36.838Z,3.90
2019-04-26T07:43:27.519Z,3.20
2019-04-26T07:46:25.664Z,4.53
2019-04-26T07:49:22.399Z,6.50
2019-04-26T07:52:06.320Z,4.47
2019-04-26T07:54:49.459Z,4.73
2019-04-26T07:57:48.086Z,4.00
2019-04-26T08:00:26.905Z,3.37
2019-04-26T08:03:08.811Z,4.10
2019-04-26T08:05:44.419Z,3.50
2019-04-26T08:08:15.917Z,5.27
2019-04-26T08:10:56.121Z,10.17
2019-04-26T08:13:27.308Z,4.93
2019-04-26T08:16:17.975Z,6.80
2019-04-26T08:18:59.715Z,9.77
2019-04-26T08:21:32.030Z,8.50
2019-04-26T08:24:07.966Z,7.20
2019-04-26T08:26:39.672Z,6.40
2019-04-26T08:29:10.815Z,7.70
2019-04-26T08:31:42.520Z,7.03
2019-04-26T08:34:15.249Z,7.80
2019-04-26T08:36:52.733Z,7.67
2019-04-26T08:39:32.379Z,11.73
2019-04-26T08:41:59.143Z,7.90
2019-04-26T08:44:34.543Z,6.40
2019-04-26T08:47:18.856Z,5.37
2019-04-26T08:49:49.586Z,5.83
2019-04-26T08:52:21.295Z,5.33
2019-04-26T08:54:52.772Z,6.30
2019-04-26T08:57:23.124Z,4.90
2019-04-26T08:59:54.600Z,8.73
2019-04-26T09:02:30.040Z,5.30
2019-04-26T09:05:21.516Z,4.73
2019-04-26T09:07:53.513Z,5.33
2019-04-26T09:10:26.058Z,5.07
2019-04-26T09:12:57.045Z,7.20
2019-04-26T09:16:01.359Z,8.70
2019-04-26T09:18:42.041Z,4.70
2019-04-26T09:20:59.940Z,5.93
2019-04-26T09:23:39.974Z,5.03
2019-04-26T09:26:12.469Z,6.10
2019-04-26T09:28:58.153Z,4.70
2019-04-26T09:31:30.585Z,3.87
2019-04-26T09:34:00.635Z,5.27
2019-04-26T09:36:29.033Z,4.50
2019-04-26T09:38:57.444Z,4.97
2019-04-26T09:41:26.504Z,4.77
2019-04-26T09:43:58.766Z,5.83
2019-04-26T09:46:29.789Z,5.23
2019-04-26T09:49:15.754Z,10.60
2019-04-26T09:51:44.519Z,9.87
2019-04-26T09:54:15.325Z,5.37
2019-04-26T09:56:43.160Z,5.73
2019-04-26T09:59:11.571Z,6.37
2019-04-26T10:01:39.980Z,7.20
2019-04-26T10:04:08.379Z,8.23
2019-04-26T10:06:36.785Z,6.93
2019-04-26T10:09:12.878Z,14.50
2019-04-26T10:11:43.594Z,8.53
2019-04-26T10:14:29.977Z,6.37
2019-04-26T10:17:15.473Z,4.83
2019-04-26T10:19:43.348Z,6.33
2019-04-26T10:22:11.843Z,6.43
2019-04-26T10:24:40.321Z,6.00
2019-04-26T10:27:08.790Z,6.53
2019-04-26T10:29:37.400Z,8.47
2019-04-26T10:32:05.884Z,6.00
2019-04-26T10:34:34.356Z,7.37
2019-04-26T10:37:06.208Z,6.83
2019-04-26T10:39:34.515Z,10.87
2019-04-26T10:42:03.009Z,5.60
2019-04-26T10:44:31.407Z,7.17
2019-04-26T10:47:04.193Z,8.17
2019-04-26T10:49:38.288Z,7.50
2019-04-26T10:52:11.989Z,13.97
2019-04-26T10:54:44.580Z,14.10
2019-04-26T10:57:13.977Z,11.37
2019-04-26T10:59:46.836Z,10.00
2019-04-26T11:02:17.618Z,11.40
2019-04-26T11:04:46.030Z,11.93
2019-04-26T11:07:14.435Z,8.50
2019-04-26T11:09:42.895Z,8.30
2019-04-26T11:12:14.205Z,10.50
2019-04-26T11:14:42.685Z,9.60
2019-04-26T11:17:15.919Z,8.30
2019-04-26T11:19:44.111Z,9.30
2019-04-26T11:22:11.765Z,11.73
2019-04-26T11:24:40.169Z,8.83
2019-04-26T11:27:09.567Z,8.53
2019-04-26T11:29:38.739Z,8.70
2019-04-26T11:32:07.205Z,7.73
2019-04-26T11:34:35.604Z,7.43
2019-04-26T11:37:04.076Z,7.67
2019-04-26T11:39:32.478Z,7.93
2019-04-26T11:42:00.941Z,9.20
2019-04-26T11:44:29.449Z,8.00
2019-04-26T11:46:59.389Z,9.93
2019-04-26T11:49:27.981Z,13.10
2019-04-26T11:51:58.673Z,8.57
2019-04-26T11:54:26.518Z,11.20
2019-04-26T11:56:54.924Z,8.47
2019-04-26T11:59:23.320Z,7.33
2019-04-26T12:01:51.728Z,7.17
2019-04-26T12:04:38.255Z,7.30
2019-04-26T12:07:08.301Z,6.53
2019-04-26T12:09:38.344Z,8.00
2019-04-26T12:12:09.172Z,6.73
2019-04-26T12:14:37.299Z,16.13
2019-04-26T12:17:05.873Z,7.03
2019-04-26T12:20:14.192Z,8.67
2019-04-26T12:22:43.382Z,10.20
2019-04-26T12:25:12.731Z,9.83
2019-04-26T12:27:41.573Z,7.80
2019-04-26T12:33:18.416Z,6.83
2019-04-26T12:35:46.868Z,7.00
2019-04-26T12:38:15.267Z,6.60
2019-04-26T12:41:02.794Z,11.33
2019-04-26T12:43:31.201Z,9.30
2019-04-26T12:46:22.602Z,8.17
2019-04-26T12:49:07.951Z,8.17
2019-04-26T12:51:38.280Z,10.17
2019-04-26T12:54:08.350Z,11.27
2019-04-26T12:56:36.607Z,8.67
2019-04-26T12:59:05.031Z,10.30
2019-04-26T13:01:33.469Z,20.23
2019-04-26T13:04:20.936Z,9.90
2019-04-26T13:07:08.768Z,9.23
2019-04-26T13:12:46.816Z,11.70
2019-04-26T13:16:12.940Z,8.90
2019-04-26T13:18:45.339Z,18.17
2019-04-26T13:21:11.497Z,11.60
2019-04-26T13:24:00.302Z,19.30
2019-04-26T13:26:50.169Z,10.13
2019-04-26T13:29:18.656Z,12.70
2019-04-26T13:32:06.400Z,9.83
2019-04-26T13:34:54.052Z,10.93
2019-04-26T13:37:41.702Z,8.50
2019-04-26T13:40:29.573Z,9.73
2019-04-26T13:42:58.000Z,11.57
2019-04-26T13:46:04.792Z,8.10
2019-04-26T13:48:52.340Z,9.03
2019-04-26T13:51:39.891Z,10.53
2019-04-26T13:54:08.292Z,8.77
2019-04-26T13:56:37.572Z,7.40
2019-04-26T13:59:07.127Z,7.63
2019-04-26T14:04:09.974Z,5.43
2019-04-26T14:06:40.692Z,5.60
2019-04-26T14:09:48.383Z,6.87
2019-04-26T14:12:18.806Z,5.67
2019-04-26T14:20:28.164Z,4.40
2019-04-26T14:23:16.386Z,2.93
2019-04-26T14:26:24.164Z,3.23
2019-04-26T14:28:54.340Z,2.93
2019-04-26T14:31:22.782Z,3.23
2019-04-26T14:36:26.754Z,2.10
2019-04-26T14:41:29.775Z,4.67
2019-04-26T14:43:58.193Z,2.47
2019-04-26T14:46:48.963Z,3.30
2019-04-26T14:49:19.190Z,1.90
2019-04-26T14:51:46.957Z,1.97
2019-04-26T14:54:16.073Z,1.97
2019-04-26T14:57:07.680Z,7.13
2019-04-26T14:59:52.904Z,2.03
2019-04-26T15:02:41.652Z,2.00
2019-04-26T15:08:18.672Z,2.37
2019-04-26T15:11:06.344Z,3.00
2019-04-26T15:13:53.844Z,3.27
2019-04-26T15:16:44.738Z,7.60
2019-04-26T15:19:34.540Z,3.80
2019-04-26T15:22:19.982Z,5.03
2019-04-26T15:25:11.643Z,5.37
2019-04-26T15:27:37.747Z,5.73
2019-04-26T15:30:25.512Z,5.67
2019-04-26T15:35:28.288Z,8.10
2019-04-26T15:38:01.510Z,109.67
2019-04-26T15:43:57.111Z,10.07
2019-04-26T15:46:48.544Z,8.07
2019-04-26T15:49:36.532Z,7.37
2019-04-26T15:55:13.349Z,8.27
2019-04-26T15:57:43.293Z,10.10
2019-04-26T16:03:20.421Z,12.90
2019-04-26T16:05:48.826Z,6.47
2019-04-26T16:10:52.886Z,8.10
2019-04-26T16:13:23.908Z,13.77
2019-04-26T16:16:34.422Z,9.23
2019-04-26T16:19:02.995Z,9.70
2019-04-26T16:21:32.356Z,11.27
2019-04-26T16:24:24.136Z,8.77
2019-04-26T16:26:55.667Z,9.63
2019-04-26T16:32:38.732Z,11.00
2019-04-26T16:35:47.057Z,13.93
2019-04-26T16:38:34.658Z,11.80
2019-04-26T16:41:27.399Z,10.50
2019-04-26T16:43:54.445Z,11.20
2019-04-26T16:46:24.635Z,8.83
2019-04-26T16:48:56.773Z,8.33
2019-04-26T16:51:23.301Z,9.50
2019-04-26T16:54:05.772Z,15.40
2019-04-26T16:56:26.686Z,9.57
2019-04-26T16:58:54.818Z,11.20
2019-04-26T17:01:23.657Z,11.70
2019-04-26T17:03:53.668Z,11.50
2019-04-26T17:06:23.623Z,14.47
2019-04-26T17:08:58.636Z,15.20
2019-04-26T17:11:22.978Z,15.67
2019-04-26T17:14:13.069Z,14.53
2019-04-26T17:17:03.193Z,12.67
2019-04-26T17:19:52.102Z,14.40
2019-04-26T17:23:00.957Z,21.70
2019-04-26T17:28:27.274Z,18.07
2019-04-26T17:30:55.694Z,20.10
2019-04-26T17:33:28.081Z,22.00
2019-04-26T17:36:15.817Z,26.13
2019-04-26T17:38:43.607Z,21.80
2019-04-26T17:41:13.641Z,21.37
2019-04-26T17:46:37.111Z,23.73
2019-04-26T17:49:05.535Z,24.27
2019-04-26T17:51:58.080Z,21.00
2019-04-26T17:54:41.430Z,22.20
2019-04-26T17:56:53.366Z,21.87
2019-04-26T18:02:00.748Z,24.60
2019-04-26T18:04:57.833Z,22.70
2019-04-26T18:07:39.297Z,25.43
2019-04-26T18:15:18.828Z,27.10
2019-04-26T18:18:24.482Z,26.70
2019-04-26T18:21:13.005Z,28.43
2019-04-26T18:23:42.210Z,35.00
2019-04-26T18:26:10.783Z,29.83
2019-04-26T18:32:06.636Z,29.07
2019-04-26T18:34:54.162Z,35.37
2019-04-26T18:37:23.112Z,31.47
2019-04-26T18:39:53.483Z,32.50
2019-04-26T18:42:22.866Z,36.53
2019-04-26T18:45:10.528Z,31.77
2019-04-26T18:50:28.581Z,35.80
2019-04-26T18:53:19.641Z,32.33
2019-04-26T18:56:06.773Z,37.37
2019-04-26T18:58:55.881Z,33.23
2019-04-26T19:01:24.562Z,37.70
2019-04-26T19:04:14.945Z,38.53
2019-04-26T19:09:59.232Z,42.67
2019-04-26T19:15:53.677Z,38.50
2019-04-26T19:18:42.414Z,41.90
2019-04-26T19:21:32.327Z,38.13
2019-04-26T19:24:07.461Z,40.40
2019-04-26T19:26:34.899Z,38.23
2019-04-26T19:29:02.104Z,37.87
2019-04-26T19:31:51.924Z,43.70
2019-04-26T19:37:07.802Z,40.07
2019-04-26T19:39:36.220Z,48.43
2019-04-26T19:42:44.530Z,50.97
2019-04-26T19:51:05.483Z,40.63
2019-04-26T19:53:54.175Z,32.87
2019-04-26T19:58:58.820Z,35.07
2019-04-26T20:01:46.564Z,31.00
2019-04-26T20:07:24.192Z,32.73
2019-04-26T20:10:12.768Z,34.37
2019-04-26T20:13:00.398Z,36.97
2019-04-26T20:18:38.838Z,34.53
2019-04-26T20:21:24.698Z,42.70
2019-04-26T20:23:54.568Z,36.70
2019-04-26T20:29:16.841Z,35.73
2019-04-26T20:32:04.385Z,36.70
2019-04-26T20:34:51.901Z,40.97
2019-04-26T20:37:39.556Z,38.27
2019-04-26T20:40:48.999Z,39.47
2019-04-26T20:46:10.899Z,37.20
2019-04-26T20:48:46.611Z,32.90
2019-04-26T20:51:17.961Z,38.17
2019-04-26T20:56:32.605Z,39.50
2019-04-26T20:59:21.977Z,37.63
2019-04-26T21:04:35.065Z,37.47
2019-04-26T21:06:54.150Z,48.90
2019-04-26T21:09:43.475Z,35.37
2019-04-26T21:12:17.061Z,36.13
2019-04-26T21:14:44.510Z,39.00
2019-04-26T21:17:13.429Z,40.40
2019-04-26T21:19:42.402Z,37.77
2019-04-26T21:22:11.041Z,40.07
2019-04-26T21:25:17.840Z,37.90
2019-04-26T21:28:06.721Z,39.17
2019-04-26T21:30:54.650Z,37.98
2019-04-26T21:36:41.087Z,40.27
2019-04-26T21:39:47.700Z,42.17
2019-04-26T21:42:21.073Z,40.53
2019-04-26T21:47:35.482Z,42.27
2019-04-26T21:50:45.093Z,40.33
2019-04-26T21:53:32.764Z,41.83
2019-04-26T21:56:03.070Z,46.60
2019-04-26T21:58:53.268Z,45.83
2019-04-26T22:04:13.194Z,46.70
2019-04-26T22:10:09.345Z,41.77
2019-04-26T22:15:35.845Z,45.87
2019-04-26T22:20:56.827Z,46.13
2019-04-26T22:23:47.627Z,51.43
2019-04-26T22:26:16.624Z,55.03
2019-04-26T22:31:41.387Z,50.83
2019-04-26T22:34:08.974Z,49.00
2019-04-26T22:36:38.645Z,48.40
2019-04-26T22:39:46.970Z,46.30
2019-04-26T22:45:46.915Z,54.33
2019-04-26T22:51:13.955Z,58.57
2019-04-26T22:53:43.368Z,56.07
2019-04-26T22:56:32.644Z,52.30
2019-04-26T22:59:05.210Z,53.70
2019-04-26T23:01:33.003Z,54.00
2019-04-26T23:04:03.434Z,56.13
2019-04-26T23:06:33.751Z,60.43
2019-04-26T23:09:23.319Z,55.40
2019-04-26T23:12:10.900Z,52.57
2019-04-26T23:15:17.690Z,55.93
2019-04-26T23:18:08.271Z,63.20
2019-04-26T23:21:15.254Z,59.37
2019-04-26T23:24:03.765Z,62.00
2019-04-26T23:26:53.959Z,75.60
2019-04-26T23:29:41.581Z,67.90
2019-04-26T23:32:29.332Z,69.50
2019-04-26T23:34:58.299Z,62.13
2019-04-26T23:37:27.872Z,64.00
2019-04-26T23:39:56.323Z,59.23
2019-04-26T23:42:25.124Z,70.70
2019-04-26T23:44:54.848Z,75.90
2019-04-26T23:47:43.809Z,69.43
2019-04-26T23:50:13.793Z,67.33
2019-04-26T23:52:43.666Z,69.40
2019-04-26T23:55:13.518Z,67.93
2019-04-26T23:57:43.486Z,71.60
